sensor_id;sensor_type;location;lat;lon;timestamp;pressure;altitude;pressure_sealevel;temperature;humidity
73671;BME280;61968;48.178;11.566;2023-03-19T00:00:39;95400.31;;;11.64;33.96
73671;BME280;61968;48.178;11.566;2023-03-19T00:03:07;95401.63;;;11.61;33.94
73671;BME280;61968;48.178;11.566;2023-03-19T00:05:33;95405.31;;;11.60;34.15
73671;BME280;61968;48.178;11.566;2023-03-19T00:08:00;95413.75;;;11.57;34.17
73671;BME280;61968;48.178;11.566;2023-03-19T00:10:27;95414.00;;;11.56;34.05
73671;BME280;61968;48.178;11.566;2023-03-19T00:12:53;95417.66;;;11.54;34.01
73671;BME280;61968;48.178;11.566;2023-03-19T00:15:20;95420.00;;;11.51;34.21
73671;BME280;61968;48.178;11.566;2023-03-19T00:17:46;95410.16;;;11.46;34.23
73671;BME280;61968;48.178;11.566;2023-03-19T00:20:14;95409.03;;;11.42;34.38
73671;BME280;61968;48.178;11.566;2023-03-19T00:22:42;95406.16;;;11.44;34.20
73671;BME280;61968;48.178;11.566;2023-03-19T00:25:09;95401.84;;;11.38;34.40
73671;BME280;61968;48.178;11.566;2023-03-19T00:27:35;95404.72;;;11.36;34.45
73671;BME280;61968;48.178;11.566;2023-03-19T00:30:02;95405.84;;;11.23;34.57
73671;BME280;61968;48.178;11.566;2023-03-19T00:32:29;95409.78;;;11.21;34.56
73671;BME280;61968;48.178;11.566;2023-03-19T00:34:55;95411.13;;;11.23;34.76
73671;BME280;61968;48.178;11.566;2023-03-19T00:37:23;95411.63;;;11.20;34.79
73671;BME280;61968;48.178;11.566;2023-03-19T00:39:50;95413.22;;;11.21;34.79
73671;BME280;61968;48.178;11.566;2023-03-19T00:42:16;95417.41;;;11.17;34.70
73671;BME280;61968;48.178;11.566;2023-03-19T00:44:42;95412.91;;;11.18;34.75
73671;BME280;61968;48.178;11.566;2023-03-19T00:47:09;95408.66;;;11.17;34.66
73671;BME280;61968;48.178;11.566;2023-03-19T00:49:36;95416.34;;;11.18;34.70
73671;BME280;61968;48.178;11.566;2023-03-19T00:52:02;95419.47;;;11.15;34.63
73671;BME280;61968;48.178;11.566;2023-03-19T00:54:30;95420.94;;;11.06;34.85
73671;BME280;61968;48.178;11.566;2023-03-19T00:56:57;95426.22;;;11.06;34.94
73671;BME280;61968;48.178;11.566;2023-03-19T00:59:23;95428.31;;;11.04;34.64
73671;BME280;61968;48.178;11.566;2023-03-19T01:01:50;95425.59;;;10.99;35.04
73671;BME280;61968;48.178;11.566;2023-03-19T01:04:17;95422.94;;;10.99;35.01
73671;BME280;61968;48.178;11.566;2023-03-19T01:06:47;95414.44;;;10.97;35.02
73671;BME280;61968;48.178;11.566;2023-03-19T01:09:13;95415.00;;;10.99;34.84
73671;BME280;61968;48.178;11.566;2023-03-19T01:11:41;95410.19;;;10.96;35.01
73671;BME280;61968;48.178;11.566;2023-03-19T01:14:08;95418.69;;;10.98;34.93
73671;BME280;61968;48.178;11.566;2023-03-19T01:16:34;95422.84;;;10.94;35.09
73671;BME280;61968;48.178;11.566;2023-03-19T01:19:01;95425.75;;;10.92;35.13
73671;BME280;61968;48.178;11.566;2023-03-19T01:21:28;95425.91;;;10.85;35.16
73671;BME280;61968;48.178;11.566;2023-03-19T01:23:55;95420.06;;;10.72;35.45
73671;BME280;61968;48.178;11.566;2023-03-19T01:26:22;95417.00;;;10.63;35.73
73671;BME280;61968;48.178;11.566;2023-03-19T01:28:50;95419.75;;;10.68;35.58
73671;BME280;61968;48.178;11.566;2023-03-19T01:31:17;95425.16;;;10.73;35.45
73671;BME280;61968;48.178;11.566;2023-03-19T01:33:43;95426.63;;;10.69;35.54
73671;BME280;61968;48.178;11.566;2023-03-19T01:36:10;95426.63;;;10.69;35.51
73671;BME280;61968;48.178;11.566;2023-03-19T01:38:37;95425.03;;;10.68;35.55
73671;BME280;61968;48.178;11.566;2023-03-19T01:41:04;95424.72;;;10.65;35.55
73671;BME280;61968;48.178;11.566;2023-03-19T01:43:31;95423.44;;;10.67;35.49
73671;BME280;61968;48.178;11.566;2023-03-19T01:46:00;95427.38;;;10.65;35.39
73671;BME280;61968;48.178;11.566;2023-03-19T01:48:36;95427.59;;;10.63;35.38
73671;BME280;61968;48.178;11.566;2023-03-19T01:51:04;95424.00;;;10.69;35.41
73671;BME280;61968;48.178;11.566;2023-03-19T01:53:35;95416.78;;;10.65;35.29
73671;BME280;61968;48.178;11.566;2023-03-19T01:56:05;95427.53;;;10.58;35.55
73671;BME280;61968;48.178;11.566;2023-03-19T01:58:34;95426.22;;;10.60;35.35
73671;BME280;61968;48.178;11.566;2023-03-19T02:01:02;95432.56;;;10.59;35.53
73671;BME280;61968;48.178;11.566;2023-03-19T02:03:29;95431.44;;;10.55;35.49
73671;BME280;61968;48.178;11.566;2023-03-19T02:05:56;95429.50;;;10.51;35.57
73671;BME280;61968;48.178;11.566;2023-03-19T02:08:24;95424.94;;;10.46;35.69
73671;BME280;61968;48.178;11.566;2023-03-19T02:10:52;95428.84;;;10.44;35.84
73671;BME280;61968;48.178;11.566;2023-03-19T02:13:20;95429.31;;;10.40;35.61
73671;BME280;61968;48.178;11.566;2023-03-19T02:15:47;95432.50;;;10.43;35.50
73671;BME280;61968;48.178;11.566;2023-03-19T02:18:14;95442.53;;;10.40;35.62
73671;BME280;61968;48.178;11.566;2023-03-19T02:20:47;95441.31;;;10.31;35.68
73671;BME280;61968;48.178;11.566;2023-03-19T02:23:24;95444.63;;;10.27;35.76
73671;BME280;61968;48.178;11.566;2023-03-19T02:26:00;95437.63;;;10.32;35.85
73671;BME280;61968;48.178;11.566;2023-03-19T02:28:28;95434.75;;;10.34;35.59
73671;BME280;61968;48.178;11.566;2023-03-19T02:30:55;95433.28;;;10.26;35.82
73671;BME280;61968;48.178;11.566;2023-03-19T02:33:21;95429.03;;;10.25;35.89
73671;BME280;61968;48.178;11.566;2023-03-19T02:35:51;95427.41;;;10.24;35.87
73671;BME280;61968;48.178;11.566;2023-03-19T02:38:18;95426.06;;;10.22;35.93
73671;BME280;61968;48.178;11.566;2023-03-19T02:40:48;95423.63;;;10.20;35.98
73671;BME280;61968;48.178;11.566;2023-03-19T02:43:19;95424.13;;;10.17;35.90
73671;BME280;61968;48.178;11.566;2023-03-19T02:45:46;95422.50;;;10.16;35.86
73671;BME280;61968;48.178;11.566;2023-03-19T02:48:13;95418.03;;;10.16;36.24
73671;BME280;61968;48.178;11.566;2023-03-19T02:50:39;95434.03;;;10.10;36.20
73671;BME280;61968;48.178;11.566;2023-03-19T02:53:06;95432.97;;;10.11;36.28
73671;BME280;61968;48.178;11.566;2023-03-19T02:55:32;95435.84;;;10.09;36.20
73671;BME280;61968;48.178;11.566;2023-03-19T02:57:59;95443.06;;;10.14;36.12
73671;BME280;61968;48.178;11.566;2023-03-19T03:00:27;95448.25;;;10.09;36.16
73671;BME280;61968;48.178;11.566;2023-03-19T03:02:54;95448.53;;;9.96;36.47
73671;BME280;61968;48.178;11.566;2023-03-19T03:05:21;95439.00;;;9.94;36.68
73671;BME280;61968;48.178;11.566;2023-03-19T03:07:47;95442.44;;;9.95;36.63
73671;BME280;61968;48.178;11.566;2023-03-19T03:10:14;95444.84;;;9.97;36.67
73671;BME280;61968;48.178;11.566;2023-03-19T03:12:40;95448.63;;;10.01;36.46
73671;BME280;61968;48.178;11.566;2023-03-19T03:15:07;95450.50;;;9.88;36.84
73671;BME280;61968;48.178;11.566;2023-03-19T03:17:37;95459.31;;;9.82;36.86
73671;BME280;61968;48.178;11.566;2023-03-19T03:20:05;95459.44;;;9.87;36.93
73671;BME280;61968;48.178;11.566;2023-03-19T03:22:32;95474.34;;;9.93;36.64
73671;BME280;61968;48.178;11.566;2023-03-19T03:24:58;95468.72;;;9.90;36.69
73671;BME280;61968;48.178;11.566;2023-03-19T03:27:25;95471.38;;;9.78;37.02
73671;BME280;61968;48.178;11.566;2023-03-19T03:29:52;95467.81;;;9.84;37.00
73671;BME280;61968;48.178;11.566;2023-03-19T03:32:18;95467.69;;;9.79;36.89
73671;BME280;61968;48.178;11.566;2023-03-19T03:34:46;95462.41;;;9.79;36.77
73671;BME280;61968;48.178;11.566;2023-03-19T03:37:12;95460.94;;;9.83;36.83
73671;BME280;61968;48.178;11.566;2023-03-19T03:39:39;95464.25;;;9.79;36.78
73671;BME280;61968;48.178;11.566;2023-03-19T03:42:07;95464.16;;;9.62;37.14
73671;BME280;61968;48.178;11.566;2023-03-19T03:44:33;95462.66;;;9.66;37.19
73671;BME280;61968;48.178;11.566;2023-03-19T03:47:00;95471.22;;;9.73;37.17
73671;BME280;61968;48.178;11.566;2023-03-19T03:49:27;95473.31;;;9.71;37.18
73671;BME280;61968;48.178;11.566;2023-03-19T03:51:55;95476.09;;;9.64;37.11
73671;BME280;61968;48.178;11.566;2023-03-19T03:54:22;95471.59;;;9.65;37.32
73671;BME280;61968;48.178;11.566;2023-03-19T03:56:48;95480.00;;;9.62;37.33
73671;BME280;61968;48.178;11.566;2023-03-19T03:59:15;95485.59;;;9.65;37.23
73671;BME280;61968;48.178;11.566;2023-03-19T04:01:42;95489.75;;;9.61;37.25
73671;BME280;61968;48.178;11.566;2023-03-19T04:04:08;95484.47;;;9.61;37.07
73671;BME280;61968;48.178;11.566;2023-03-19T04:06:35;95483.53;;;9.56;37.41
73671;BME280;61968;48.178;11.566;2023-03-19T04:09:03;95484.34;;;9.56;37.43
73671;BME280;61968;48.178;11.566;2023-03-19T04:11:29;95494.66;;;9.58;37.46
73671;BME280;61968;48.178;11.566;2023-03-19T04:13:56;95489.28;;;9.41;37.71
73671;BME280;61968;48.178;11.566;2023-03-19T04:16:23;95494.09;;;9.44;37.58
73671;BME280;61968;48.178;11.566;2023-03-19T04:18:49;95485.25;;;9.38;37.62
73671;BME280;61968;48.178;11.566;2023-03-19T04:21:16;95482.03;;;9.48;37.57
73671;BME280;61968;48.178;11.566;2023-03-19T04:23:42;95490.22;;;9.58;37.31
73671;BME280;61968;48.178;11.566;2023-03-19T04:26:10;95492.59;;;9.60;37.22
73671;BME280;61968;48.178;11.566;2023-03-19T04:28:37;95497.88;;;9.60;37.11
73671;BME280;61968;48.178;11.566;2023-03-19T04:31:06;95504.75;;;9.61;37.25
73671;BME280;61968;48.178;11.566;2023-03-19T04:33:33;95500.63;;;9.53;37.44
73671;BME280;61968;48.178;11.566;2023-03-19T04:36:01;95506.25;;;9.57;37.42
73671;BME280;61968;48.178;11.566;2023-03-19T04:38:27;95505.34;;;9.51;37.36
73671;BME280;61968;48.178;11.566;2023-03-19T04:40:55;95501.09;;;9.50;37.37
73671;BME280;61968;48.178;11.566;2023-03-19T04:43:23;95497.66;;;9.49;37.46
73671;BME280;61968;48.178;11.566;2023-03-19T04:45:50;95507.63;;;9.47;37.34
73671;BME280;61968;48.178;11.566;2023-03-19T04:48:17;95504.66;;;9.44;37.49
73671;BME280;61968;48.178;11.566;2023-03-19T04:50:44;95508.22;;;9.49;37.28
73671;BME280;61968;48.178;11.566;2023-03-19T04:53:11;95512.69;;;9.49;37.45
73671;BME280;61968;48.178;11.566;2023-03-19T04:55:38;95504.75;;;9.61;37.23
73671;BME280;61968;48.178;11.566;2023-03-19T04:58:05;95519.91;;;9.65;37.15
73671;BME280;61968;48.178;11.566;2023-03-19T05:00:34;95516.16;;;9.61;37.35
73671;BME280;61968;48.178;11.566;2023-03-19T05:03:01;95518.44;;;9.46;37.53
73671;BME280;61968;48.178;11.566;2023-03-19T05:05:27;95514.56;;;10.48;45.06
73671;BME280;61968;48.178;11.566;2023-03-19T05:07:53;95510.50;;;10.97;42.38
73671;BME280;61968;48.178;11.566;2023-03-19T05:10:21;95508.34;;;11.45;42.01
73671;BME280;61968;48.178;11.566;2023-03-19T05:12:48;95506.41;;;11.57;35.57
73671;BME280;61968;48.178;11.566;2023-03-19T05:15:15;95518.75;;;11.18;35.66
73671;BME280;61968;48.178;11.566;2023-03-19T05:17:42;95525.94;;;10.89;35.48
73671;BME280;61968;48.178;11.566;2023-03-19T05:20:10;95526.00;;;10.65;35.48
73671;BME280;61968;48.178;11.566;2023-03-19T05:22:37;95535.03;;;10.40;36.25
73671;BME280;61968;48.178;11.566;2023-03-19T05:25:04;95542.28;;;10.33;36.11
73671;BME280;61968;48.178;11.566;2023-03-19T05:27:31;95542.19;;;10.16;36.27
73671;BME280;61968;48.178;11.566;2023-03-19T05:29:57;95541.88;;;10.01;36.74
73671;BME280;61968;48.178;11.566;2023-03-19T05:32:24;95549.00;;;10.01;36.96
73671;BME280;61968;48.178;11.566;2023-03-19T05:34:52;95553.50;;;9.88;36.74
73671;BME280;61968;48.178;11.566;2023-03-19T05:37:18;95559.56;;;9.77;37.03
73671;BME280;61968;48.178;11.566;2023-03-19T05:39:45;95550.91;;;9.70;37.21
73671;BME280;61968;48.178;11.566;2023-03-19T05:42:12;95557.00;;;9.70;37.12
73671;BME280;61968;48.178;11.566;2023-03-19T05:44:39;95550.91;;;9.70;37.10
73671;BME280;61968;48.178;11.566;2023-03-19T05:47:06;95562.72;;;9.56;37.30
73671;BME280;61968;48.178;11.566;2023-03-19T05:49:33;95568.88;;;9.38;38.12
73671;BME280;61968;48.178;11.566;2023-03-19T05:52:00;95565.44;;;9.37;37.93
73671;BME280;61968;48.178;11.566;2023-03-19T05:54:27;95574.38;;;9.36;38.18
73671;BME280;61968;48.178;11.566;2023-03-19T05:56:53;95579.91;;;9.35;38.29
73671;BME280;61968;48.178;11.566;2023-03-19T05:59:20;95585.19;;;9.35;38.20
73671;BME280;61968;48.178;11.566;2023-03-19T06:01:47;95592.81;;;9.13;38.85
73671;BME280;61968;48.178;11.566;2023-03-19T06:04:13;95588.03;;;9.33;38.39
73671;BME280;61968;48.178;11.566;2023-03-19T06:06:40;95589.81;;;9.21;38.44
73671;BME280;61968;48.178;11.566;2023-03-19T06:09:08;95596.69;;;9.10;38.87
73671;BME280;61968;48.178;11.566;2023-03-19T06:11:34;95599.13;;;9.23;38.47
73671;BME280;61968;48.178;11.566;2023-03-19T06:14:03;95606.44;;;9.21;38.86
73671;BME280;61968;48.178;11.566;2023-03-19T06:16:30;95613.22;;;9.17;38.94
73671;BME280;61968;48.178;11.566;2023-03-19T06:18:56;95622.03;;;9.11;39.16
73671;BME280;61968;48.178;11.566;2023-03-19T06:21:23;95625.97;;;9.20;39.25
73671;BME280;61968;48.178;11.566;2023-03-19T06:23:53;95631.94;;;9.27;38.98
73671;BME280;61968;48.178;11.566;2023-03-19T06:26:22;95628.41;;;9.34;39.00
73671;BME280;61968;48.178;11.566;2023-03-19T06:28:48;95634.38;;;9.29;39.02
73671;BME280;61968;48.178;11.566;2023-03-19T06:31:15;95633.56;;;9.29;39.15
73671;BME280;61968;48.178;11.566;2023-03-19T06:33:42;95641.53;;;9.10;39.77
73671;BME280;61968;48.178;11.566;2023-03-19T06:36:08;95647.41;;;8.94;40.36
73671;BME280;61968;48.178;11.566;2023-03-19T06:38:35;95654.44;;;8.82;40.36
73671;BME280;61968;48.178;11.566;2023-03-19T06:41:02;95649.81;;;8.95;40.39
73671;BME280;61968;48.178;11.566;2023-03-19T06:43:30;95660.06;;;8.85;40.51
73671;BME280;61968;48.178;11.566;2023-03-19T06:46:01;95656.53;;;8.91;40.69
73671;BME280;61968;48.178;11.566;2023-03-19T06:48:27;95661.38;;;8.94;40.47
73671;BME280;61968;48.178;11.566;2023-03-19T06:50:53;95663.00;;;8.95;40.48
73671;BME280;61968;48.178;11.566;2023-03-19T06:53:20;95660.50;;;9.00;40.61
73671;BME280;61968;48.178;11.566;2023-03-19T06:55:47;95667.22;;;9.15;40.40
73671;BME280;61968;48.178;11.566;2023-03-19T06:58:13;95670.16;;;9.25;39.99
73671;BME280;61968;48.178;11.566;2023-03-19T07:00:41;95664.44;;;9.28;40.15
73671;BME280;61968;48.178;11.566;2023-03-19T07:03:08;95670.94;;;9.25;39.94
73671;BME280;61968;48.178;11.566;2023-03-19T07:05:34;95661.91;;;9.33;40.02
73671;BME280;61968;48.178;11.566;2023-03-19T07:08:01;95673.22;;;9.22;40.18
73671;BME280;61968;48.178;11.566;2023-03-19T07:10:28;95680.81;;;9.30;40.10
73671;BME280;61968;48.178;11.566;2023-03-19T07:12:54;95684.06;;;9.32;40.31
73671;BME280;61968;48.178;11.566;2023-03-19T07:15:21;95689.91;;;9.34;40.28
73671;BME280;61968;48.178;11.566;2023-03-19T07:17:48;95692.63;;;9.27;40.44
73671;BME280;61968;48.178;11.566;2023-03-19T07:20:15;95699.28;;;9.30;40.38
73671;BME280;61968;48.178;11.566;2023-03-19T07:22:42;95699.88;;;9.32;40.40
73671;BME280;61968;48.178;11.566;2023-03-19T07:25:09;95697.69;;;9.29;40.70
73671;BME280;61968;48.178;11.566;2023-03-19T07:27:35;95707.25;;;9.42;40.24
73671;BME280;61968;48.178;11.566;2023-03-19T07:30:02;95714.69;;;9.33;40.94
73671;BME280;61968;48.178;11.566;2023-03-19T07:32:29;95714.53;;;9.46;40.34
73671;BME280;61968;48.178;11.566;2023-03-19T07:34:57;95726.94;;;9.58;40.00
73671;BME280;61968;48.178;11.566;2023-03-19T07:37:23;95725.56;;;9.55;40.04
73671;BME280;61968;48.178;11.566;2023-03-19T07:39:50;95735.75;;;9.52;40.38
73671;BME280;61968;48.178;11.566;2023-03-19T07:42:16;95738.78;;;9.55;40.31
73671;BME280;61968;48.178;11.566;2023-03-19T07:44:43;95734.66;;;9.59;40.11
73671;BME280;61968;48.178;11.566;2023-03-19T07:47:09;95743.88;;;9.68;40.32
73671;BME280;61968;48.178;11.566;2023-03-19T07:49:36;95740.44;;;9.68;40.37
73671;BME280;61968;48.178;11.566;2023-03-19T07:52:04;95740.28;;;9.63;40.20
73671;BME280;61968;48.178;11.566;2023-03-19T07:54:30;95739.56;;;9.56;41.05
73671;BME280;61968;48.178;11.566;2023-03-19T07:56:58;95758.78;;;9.44;41.38
73671;BME280;61968;48.178;11.566;2023-03-19T07:59:24;95747.59;;;9.61;40.83
73671;BME280;61968;48.178;11.566;2023-03-19T08:01:51;95749.94;;;9.69;40.55
73671;BME280;61968;48.178;11.566;2023-03-19T08:04:18;95750.22;;;9.79;40.55
73671;BME280;61968;48.178;11.566;2023-03-19T08:06:44;95744.94;;;9.79;40.80
73671;BME280;61968;48.178;11.566;2023-03-19T08:09:12;95749.06;;;9.75;41.18
73671;BME280;61968;48.178;11.566;2023-03-19T08:11:38;95746.16;;;9.65;41.47
73671;BME280;61968;48.178;11.566;2023-03-19T08:14:05;95749.22;;;9.32;42.47
73671;BME280;61968;48.178;11.566;2023-03-19T08:16:31;95743.56;;;9.28;42.78
73671;BME280;61968;48.178;11.566;2023-03-19T08:18:58;95750.47;;;9.29;43.34
73671;BME280;61968;48.178;11.566;2023-03-19T08:21:25;95748.78;;;9.35;43.27
73671;BME280;61968;48.178;11.566;2023-03-19T08:23:51;95750.63;;;9.16;43.81
73671;BME280;61968;48.178;11.566;2023-03-19T08:26:19;95754.69;;;9.30;43.66
73671;BME280;61968;48.178;11.566;2023-03-19T08:28:46;95755.81;;;9.41;43.47
73671;BME280;61968;48.178;11.566;2023-03-19T08:31:12;95755.94;;;9.46;43.62
73671;BME280;61968;48.178;11.566;2023-03-19T08:33:39;95748.66;;;9.60;43.41
73671;BME280;61968;48.178;11.566;2023-03-19T08:36:07;95743.59;;;9.77;42.95
73671;BME280;61968;48.178;11.566;2023-03-19T08:38:35;95745.53;;;9.81;43.16
73671;BME280;61968;48.178;11.566;2023-03-19T08:41:01;95747.88;;;9.89;42.71
73671;BME280;61968;48.178;11.566;2023-03-19T08:43:30;95757.53;;;9.96;42.66
73671;BME280;61968;48.178;11.566;2023-03-19T08:45:57;95757.69;;;10.01;42.38
73671;BME280;61968;48.178;11.566;2023-03-19T08:48:24;95766.72;;;9.93;42.68
73671;BME280;61968;48.178;11.566;2023-03-19T08:50:52;95761.53;;;9.68;43.23
73671;BME280;61968;48.178;11.566;2023-03-19T08:53:19;95772.84;;;9.57;43.89
73671;BME280;61968;48.178;11.566;2023-03-19T08:55:50;95775.19;;;9.65;43.81
73671;BME280;61968;48.178;11.566;2023-03-19T08:58:17;95770.91;;;9.82;43.38
73671;BME280;61968;48.178;11.566;2023-03-19T09:00:45;95776.03;;;9.96;42.77
73671;BME280;61968;48.178;11.566;2023-03-19T09:03:11;95772.47;;;10.02;42.78
73671;BME280;61968;48.178;11.566;2023-03-19T09:05:38;95773.53;;;10.01;42.53
73671;BME280;61968;48.178;11.566;2023-03-19T09:08:05;95778.53;;;9.90;43.05
73671;BME280;61968;48.178;11.566;2023-03-19T09:10:32;95780.91;;;9.80;43.16
73671;BME280;61968;48.178;11.566;2023-03-19T09:12:58;95794.28;;;10.39;45.02
73671;BME280;61968;48.178;11.566;2023-03-19T09:15:25;95789.09;;;10.32;42.64
73671;BME280;61968;48.178;11.566;2023-03-19T09:17:53;95791.03;;;10.25;42.64
73671;BME280;61968;48.178;11.566;2023-03-19T09:20:20;95795.63;;;10.30;42.22
73671;BME280;61968;48.178;11.566;2023-03-19T09:22:46;95792.53;;;10.33;41.96
73671;BME280;61968;48.178;11.566;2023-03-19T09:25:15;95792.25;;;10.11;42.62
73671;BME280;61968;48.178;11.566;2023-03-19T09:27:41;95791.31;;;10.05;42.56
73671;BME280;61968;48.178;11.566;2023-03-19T09:30:09;95797.19;;;10.07;42.57
73671;BME280;61968;48.178;11.566;2023-03-19T09:32:36;95800.09;;;10.17;47.29
73671;BME280;61968;48.178;11.566;2023-03-19T09:35:05;95794.19;;;11.40;46.84
73671;BME280;61968;48.178;11.566;2023-03-19T09:37:31;95795.81;;;12.10;44.48
73671;BME280;61968;48.178;11.566;2023-03-19T09:39:58;95803.97;;;12.37;42.49
73671;BME280;61968;48.178;11.566;2023-03-19T09:42:45;95802.19;;;12.59;41.47
73671;BME280;61968;48.178;11.566;2023-03-19T09:45:17;95810.75;;;12.95;40.57
73671;BME280;61968;48.178;11.566;2023-03-19T09:47:45;95806.75;;;13.14;39.09
73671;BME280;61968;48.178;11.566;2023-03-19T09:50:16;95815.28;;;13.17;39.56
73671;BME280;61968;48.178;11.566;2023-03-19T09:52:44;95809.97;;;13.17;38.17
73671;BME280;61968;48.178;11.566;2023-03-19T09:55:33;95821.38;;;13.34;38.60
73671;BME280;61968;48.178;11.566;2023-03-19T09:58:11;95824.38;;;13.59;37.75
73671;BME280;61968;48.178;11.566;2023-03-19T10:00:39;95821.28;;;13.68;37.25
73671;BME280;61968;48.178;11.566;2023-03-19T10:03:19;95822.69;;;13.53;37.35
73671;BME280;61968;48.178;11.566;2023-03-19T10:05:58;95826.53;;;13.24;36.28
73671;BME280;61968;48.178;11.566;2023-03-19T10:08:39;95822.25;;;12.84;38.97
73671;BME280;61968;48.178;11.566;2023-03-19T10:11:23;95807.94;;;12.85;37.93
73671;BME280;61968;48.178;11.566;2023-03-19T10:14:01;95805.78;;;12.82;38.86
73671;BME280;61968;48.178;11.566;2023-03-19T10:16:35;95804.53;;;13.06;39.40
73671;BME280;61968;48.178;11.566;2023-03-19T10:19:04;95812.72;;;13.22;37.14
73671;BME280;61968;48.178;11.566;2023-03-19T10:21:36;95806.72;;;12.93;37.49
73671;BME280;61968;48.178;11.566;2023-03-19T10:24:11;95807.69;;;12.24;38.22
73671;BME280;61968;48.178;11.566;2023-03-19T10:26:40;95809.44;;;12.02;38.54
73671;BME280;61968;48.178;11.566;2023-03-19T10:29:08;95798.56;;;11.86;38.95
73671;BME280;61968;48.178;11.566;2023-03-19T10:31:42;95802.25;;;11.85;39.07
73671;BME280;61968;48.178;11.566;2023-03-19T10:34:25;95802.16;;;11.80;39.06
73671;BME280;61968;48.178;11.566;2023-03-19T10:36:59;95808.84;;;11.71;39.33
73671;BME280;61968;48.178;11.566;2023-03-19T10:39:29;95804.22;;;11.66;38.96
73671;BME280;61968;48.178;11.566;2023-03-19T10:42:02;95803.69;;;11.64;39.22
73671;BME280;61968;48.178;11.566;2023-03-19T10:44:33;95808.72;;;11.66;39.07
73671;BME280;61968;48.178;11.566;2023-03-19T10:47:09;95806.88;;;11.78;38.76
73671;BME280;61968;48.178;11.566;2023-03-19T10:49:37;95808.81;;;11.83;38.83
73671;BME280;61968;48.178;11.566;2023-03-19T10:52:06;95804.22;;;11.78;38.68
73671;BME280;61968;48.178;11.566;2023-03-19T10:54:42;95802.75;;;11.70;39.09
73671;BME280;61968;48.178;11.566;2023-03-19T10:57:20;95801.03;;;11.64;39.64
73671;BME280;61968;48.178;11.566;2023-03-19T10:59:47;95797.34;;;11.65;39.22
73671;BME280;61968;48.178;11.566;2023-03-19T11:02:16;95799.31;;;11.58;39.52
73671;BME280;61968;48.178;11.566;2023-03-19T11:04:43;95801.63;;;11.54;38.89
73671;BME280;61968;48.178;11.566;2023-03-19T11:07:13;95795.34;;;11.32;39.57
73671;BME280;61968;48.178;11.566;2023-03-19T11:09:41;95790.16;;;11.37;40.01
73671;BME280;61968;48.178;11.566;2023-03-19T11:12:17;95785.81;;;11.19;39.85
73671;BME280;61968;48.178;11.566;2023-03-19T11:14:46;95781.31;;;11.31;40.11
73671;BME280;61968;48.178;11.566;2023-03-19T11:17:20;95778.78;;;11.37;39.29
73671;BME280;61968;48.178;11.566;2023-03-19T11:19:50;95783.69;;;11.45;39.16
73671;BME280;61968;48.178;11.566;2023-03-19T11:22:21;95784.00;;;11.48;39.35
73671;BME280;61968;48.178;11.566;2023-03-19T11:24:54;95778.59;;;11.55;39.46
73671;BME280;61968;48.178;11.566;2023-03-19T11:27:29;95779.47;;;11.32;38.89
73671;BME280;61968;48.178;11.566;2023-03-19T11:29:56;95780.59;;;11.36;39.17
73671;BME280;61968;48.178;11.566;2023-03-19T11:35:41;95775.88;;;11.38;38.76
73671;BME280;61968;48.178;11.566;2023-03-19T11:38:17;95770.59;;;11.26;39.00
73671;BME280;61968;48.178;11.566;2023-03-19T11:40:53;95772.78;;;11.29;39.34
73671;BME280;61968;48.178;11.566;2023-03-19T11:43:45;95767.31;;;11.48;39.01
73671;BME280;61968;48.178;11.566;2023-03-19T11:46:32;95770.56;;;11.50;38.66
73671;BME280;61968;48.178;11.566;2023-03-19T11:49:26;95767.56;;;11.46;38.48
73671;BME280;61968;48.178;11.566;2023-03-19T11:52:03;95770.09;;;11.53;38.64
73671;BME280;61968;48.178;11.566;2023-03-19T11:54:43;95755.53;;;11.67;38.76
73671;BME280;61968;48.178;11.566;2023-03-19T11:57:19;95758.16;;;11.79;38.23
73671;BME280;61968;48.178;11.566;2023-03-19T12:00:07;95756.06;;;11.81;38.10
73671;BME280;61968;48.178;11.566;2023-03-19T12:02:49;95751.34;;;12.45;38.47
73671;BME280;61968;48.178;11.566;2023-03-19T12:05:23;95750.69;;;12.21;36.96
73671;BME280;61968;48.178;11.566;2023-03-19T12:08:05;95749.59;;;11.89;36.70
73671;BME280;61968;48.178;11.566;2023-03-19T12:10:49;95751.03;;;11.68;36.88
73671;BME280;61968;48.178;11.566;2023-03-19T12:13:42;95738.91;;;11.84;37.31
73671;BME280;61968;48.178;11.566;2023-03-19T12:16:18;95738.91;;;11.84;36.95
73671;BME280;61968;48.178;11.566;2023-03-19T12:19:04;95740.44;;;11.80;36.90
73671;BME280;61968;48.178;11.566;2023-03-19T12:21:42;95737.16;;;11.89;37.25
73671;BME280;61968;48.178;11.566;2023-03-19T12:24:19;95727.50;;;12.00;37.48
73671;BME280;61968;48.178;11.566;2023-03-19T12:26:58;95735.19;;;12.13;37.45
73671;BME280;61968;48.178;11.566;2023-03-19T12:29:34;95730.03;;;12.23;37.71
73671;BME280;61968;48.178;11.566;2023-03-19T12:32:13;95717.50;;;12.36;36.62
73671;BME280;61968;48.178;11.566;2023-03-19T12:34:43;95709.84;;;12.39;35.90
73671;BME280;61968;48.178;11.566;2023-03-19T12:37:17;95716.63;;;12.47;36.00
73671;BME280;61968;48.178;11.566;2023-03-19T12:39:53;95715.47;;;12.60;35.54
73671;BME280;61968;48.178;11.566;2023-03-19T12:42:29;95712.03;;;12.59;35.09
73671;BME280;61968;48.178;11.566;2023-03-19T12:44:59;95706.81;;;12.64;35.41
73671;BME280;61968;48.178;11.566;2023-03-19T12:47:32;95707.63;;;12.65;34.96
73671;BME280;61968;48.178;11.566;2023-03-19T12:50:02;95706.22;;;12.62;34.45
73671;BME280;61968;48.178;11.566;2023-03-19T12:52:34;95705.91;;;12.59;34.24
73671;BME280;61968;48.178;11.566;2023-03-19T12:55:05;95708.56;;;12.59;34.28
73671;BME280;61968;48.178;11.566;2023-03-19T12:57:43;95703.56;;;12.62;34.68
73671;BME280;61968;48.178;11.566;2023-03-19T13:00:16;95697.56;;;12.50;34.55
73671;BME280;61968;48.178;11.566;2023-03-19T13:02:50;95698.94;;;12.53;34.48
73671;BME280;61968;48.178;11.566;2023-03-19T13:05:25;95691.84;;;12.58;34.42
73671;BME280;61968;48.178;11.566;2023-03-19T13:07:58;95692.88;;;12.57;34.07